Hoonah, Alaska
Current Conditions -  °F | °C
As of 8:56 AM on Monday 26 Jan 2015 (Local Time) from PAOH Reporting Station
Haze Haze  
Wind Chill: 27°   Ceiling: Unl
Heat Index: 32°   Visibility: 5mi
Dew Point: 32°   Wind: 5mph
Humidity: 100%   Direction: 280°W
Pressure: 29.93"   Gusts: NA
Location:  58.11°N, 135.45°W
Report Text: PAOH 261756Z AUTO 28004KT 5SM BR SCT050 00/00 A2993 RMK AO2 TSNO 55000 T00000000 10005 21005 SLP136 $
Loading
Personal Weather Stations






























Interactive Weather Map New forecast layout! Learn more

10-Day Weather Forecast

Advertisements
Track Severe Weather on mobile